Time;durP1;ratioP1;P1;durP2;ratioP2;P2;SDS_P1;SDS_P2;PMS_P1;PMS_P2;Temp;Humidity;BMP_temperature;BMP_pressure;BME280_temperature;BME280_humidity;BME280_pressure;Samples;Min_cycle;Max_cycle;Signal;HPM_P1;HPM_P2
2023/08/09 00:00:32;;;;;;;;;3.75;2.50;;;;;21.75;45.05;101064.53;5022470;28;45273;-64
2023/08/09 00:02:59;;;;;;;;;2.00;2.00;;;;;21.78;45.34;101073.34;5040487;28;46802;-65
2023/08/09 00:05:24;;;;;;;;;3.00;2.00;;;;;21.75;45.40;101079.75;5027712;28;45243;-65
2023/08/09 00:07:50;;;;;;;;;2.25;2.25;;;;;21.72;45.34;101080.78;5040838;28;45396;-65
2023/08/09 00:10:15;;;;;;;;;3.00;2.75;;;;;21.70;45.36;101082.66;5039239;28;45563;-65
2023/08/09 00:12:40;;;;;;;;;4.00;2.75;;;;;21.68;45.51;101084.53;5040481;28;45302;-65
2023/08/09 00:15:06;;;;;;;;;4.50;3.75;;;;;21.63;45.50;101067.91;5040521;28;45262;-65
2023/08/09 00:17:32;;;;;;;;;5.00;5.00;;;;;21.61;45.67;101072.50;5040312;28;45466;-65
2023/08/09 00:19:58;;;;;;;;;6.75;6.75;;;;;21.58;45.66;101073.53;5026316;28;45332;-65
2023/08/09 00:22:23;;;;;;;;;11.00;6.50;;;;;21.59;46.00;101075.22;5025611;28;45354;-65
2023/08/09 00:24:48;;;;;;;;;8.75;7.50;;;;;21.54;45.48;101065.72;5020410;28;45267;-65
2023/08/09 00:27:14;;;;;;;;;6.25;6.25;;;;;21.55;45.51;101073.69;5020604;28;45250;-65
2023/08/09 00:29:40;;;;;;;;;7.75;6.25;;;;;21.51;45.95;101065.88;5020668;28;45237;-65
2023/08/09 00:32:05;;;;;;;;;8.00;5.50;;;;;21.49;45.74;101068.63;5020303;28;45231;-65
2023/08/09 00:34:30;;;;;;;;;6.75;5.00;;;;;21.45;46.34;101066.22;5020220;28;45287;-65
2023/08/09 00:36:56;;;;;;;;;7.25;6.75;;;;;21.43;46.16;101076.97;5020531;28;45290;-65
2023/08/09 00:39:21;;;;;;;;;6.00;6.00;;;;;21.37;46.26;101069.28;5020387;28;45400;-65
2023/08/09 00:41:46;;;;;;;;;7.50;7.00;;;;;21.32;46.50;101066.91;5019756;28;55378;-65
2023/08/09 00:44:12;;;;;;;;;7.75;7.75;;;;;21.32;46.39;101066.00;5020217;28;45211;-65
2023/08/09 00:46:37;;;;;;;;;8.00;5.00;;;;;21.29;46.27;101069.72;5020341;28;45568;-65
2023/08/09 00:49:03;;;;;;;;;8.75;8.75;;;;;21.25;46.04;101071.69;5019784;28;45514;-65
2023/08/09 00:51:29;;;;;;;;;5.75;5.25;;;;;21.20;46.33;101076.41;5020072;28;45382;-65
2023/08/09 00:53:54;;;;;;;;;6.25;6.25;;;;;21.11;46.49;101058.22;5019724;28;45353;-65
2023/08/09 00:56:19;;;;;;;;;5.00;4.00;;;;;21.15;46.43;101062.44;5019890;28;45393;-65
2023/08/09 00:58:45;;;;;;;;;5.75;5.75;;;;;21.11;46.42;101075.09;5025050;28;45262;-65
2023/08/09 01:01:10;;;;;;;;;5.25;5.25;;;;;21.07;46.89;101073.53;5039675;28;45573;-65
2023/08/09 01:03:36;;;;;;;;;11.50;6.00;;;;;21.06;46.58;101078.97;5039375;28;45364;-65
2023/08/09 01:06:15;;;;;;;;;5.00;5.00;;;;;21.02;46.95;101074.72;5021912;28;45465;-65
2023/08/09 01:08:53;;;;;;;;;5.75;5.75;;;;;21.01;46.83;101073.03;5039914;28;45215;-65
2023/08/09 01:11:36;;;;;;;;;3.75;3.75;;;;;20.96;46.84;101072.41;5021458;28;46478;-65
2023/08/09 01:14:04;;;;;;;;;3.00;3.00;;;;;20.94;47.35;101073.34;5030590;28;45210;-65
2023/08/09 01:16:31;;;;;;;;;4.00;4.00;;;;;20.90;46.82;101076.25;5039429;28;45356;-65
2023/08/09 01:18:58;;;;;;;;;4.00;3.00;;;;;20.88;47.48;101080.78;5029640;28;45427;-65
2023/08/09 01:21:29;;;;;;;;;6.50;4.00;;;;;20.85;47.03;101080.97;5021104;28;45278;-65
2023/08/09 01:23:55;;;;;;;;;3.00;3.00;;;;;20.82;47.99;101081.09;5019434;28;45339;-65
2023/08/09 01:26:21;;;;;;;;;5.75;4.75;;;;;20.80;47.60;101083.00;5035911;28;45456;-65
2023/08/09 01:28:46;;;;;;;;;5.25;4.00;;;;;20.76;47.69;101088.50;5027498;28;45288;-65
2023/08/09 01:31:11;;;;;;;;;4.00;4.00;;;;;20.74;47.33;101090.41;5018144;28;46994;-65
2023/08/09 01:33:37;;;;;;;;;4.75;2.75;;;;;20.73;47.43;101085.16;5022034;28;45321;-65
2023/08/09 01:36:08;;;;;;;;;2.00;2.00;;;;;20.70;47.72;101102.13;5005279;28;45421;-65
2023/08/09 01:38:38;;;;;;;;;2.00;2.00;;;;;20.69;48.07;101102.22;5023179;28;45409;-65
2023/08/09 01:41:05;;;;;;;;;1.00;1.00;;;;;20.68;48.11;101100.47;5022606;28;45516;-65
2023/08/09 01:43:31;;;;;;;;;4.75;3.00;;;;;20.68;47.97;101097.81;5022835;28;45244;-65
2023/08/09 01:45:56;;;;;;;;;4.25;3.50;;;;;20.67;48.22;101094.28;5023151;28;45288;-65
2023/08/09 01:48:22;;;;;;;;;3.75;2.75;;;;;20.69;47.65;101094.19;5022850;28;45404;-64
2023/08/09 01:50:48;;;;;;;;;2.75;2.75;;;;;20.68;48.13;101093.34;5022800;28;46264;-65
2023/08/09 01:53:13;;;;;;;;;2.00;2.00;;;;;20.67;48.28;101086.28;5022967;28;45429;-65
2023/08/09 01:55:40;;;;;;;;;3.75;2.50;;;;;20.70;48.14;101101.28;5022540;28;45437;-65
2023/08/09 01:58:06;;;;;;;;;3.00;3.00;;;;;20.68;48.05;101088.00;5022950;28;45266;-65
2023/08/09 02:00:32;;;;;;;;;3.75;1.00;;;;;20.70;47.85;101099.47;5042498;28;45365;-65
2023/08/09 02:02:57;;;;;;;;;3.75;2.00;;;;;20.71;48.09;101097.69;5042401;28;45526;-65
2023/08/09 02:05:23;;;;;;;;;2.00;2.00;;;;;20.70;48.64;101095.94;5042646;28;45675;-66
2023/08/09 02:07:50;;;;;;;;;2.00;1.50;;;;;20.68;48.39;101093.34;5042535;28;45414;-65
2023/08/09 02:10:15;;;;;;;;;5.75;5.00;;;;;20.70;48.82;101103.94;5042289;28;45961;-65
2023/08/09 02:12:43;;;;;;;;;2.25;2.25;;;;;20.68;49.13;101104.03;5042283;28;45387;-65
2023/08/09 02:15:09;;;;;;;;;3.50;2.25;;;;;20.67;49.49;101104.97;5042524;28;45314;-65
2023/08/09 02:17:35;;;;;;;;;1.25;1.25;;;;;20.67;48.88;101104.97;5042338;28;45458;-65
2023/08/09 02:20:04;;;;;;;;;3.00;3.00;;;;;20.65;49.63;101101.50;5042337;28;46333;-64
2023/08/09 02:22:36;;;;;;;;;3.00;2.75;;;;;20.66;49.16;101105.06;5034154;28;45582;-65
2023/08/09 02:25:03;;;;;;;;;2.00;2.00;;;;;20.65;48.98;101106.84;5022221;28;45444;-65
2023/08/09 02:27:28;;;;;;;;;1.00;1.00;;;;;20.64;49.41;101099.78;5022168;28;45275;-65
2023/08/09 02:29:55;;;;;;;;;6.75;4.00;;;;;20.62;50.14;101091.84;5022282;28;45339;-65
2023/08/09 02:32:20;;;;;;;;;4.75;3.00;;;;;20.63;49.41;101092.72;5022006;28;45280;-65
2023/08/09 02:34:46;;;;;;;;;1.25;1.00;;;;;20.55;49.93;101087.78;5022263;28;45421;-64
2023/08/09 02:37:11;;;;;;;;;2.25;2.00;;;;;20.61;49.95;101090.09;5022133;28;45235;-65
2023/08/09 02:39:36;;;;;;;;;2.00;2.00;;;;;20.61;50.22;101102.59;5020731;28;47254;-64
2023/08/09 02:42:02;;;;;;;;;3.75;3.00;;;;;20.61;49.63;101097.25;5021934;28;45252;-65
2023/08/09 02:44:29;;;;;;;;;4.00;2.75;;;;;20.57;49.88;101099.22;5021322;28;45170;-65
2023/08/09 02:46:55;;;;;;;;;3.00;2.00;;;;;20.58;49.78;101102.78;5021659;28;45440;-65
2023/08/09 02:49:20;;;;;;;;;2.00;2.00;;;;;20.57;50.06;101099.22;5022064;28;45330;-65
2023/08/09 02:51:45;;;;;;;;;4.00;3.00;;;;;20.57;49.58;101096.56;5021917;28;45329;-65
2023/08/09 02:54:11;;;;;;;;;1.50;1.50;;;;;20.59;50.03;101097.34;5022301;28;45395;-65
2023/08/09 02:56:36;;;;;;;;;2.00;2.00;;;;;20.58;49.91;101084.94;5003458;28;49344;-65
2023/08/09 02:59:01;;;;;;;;;2.25;1.50;;;;;20.57;49.97;101085.03;5029360;28;45317;-65
2023/08/09 03:01:29;;;;;;;;;1.50;1.50;;;;;20.56;50.14;101092.16;5041700;28;45308;-64
2023/08/09 03:03:54;;;;;;;;;2.00;1.00;;;;;20.55;50.35;101082.44;5041496;28;45243;-64
2023/08/09 03:06:23;;;;;;;;;1.25;1.25;;;;;20.55;50.08;101084.22;5041616;28;45370;-65
2023/08/09 03:08:52;;;;;;;;;1.25;1.25;;;;;20.54;49.83;101088.72;5041740;28;45409;-65
2023/08/09 03:11:23;;;;;;;;;2.00;1.00;;;;;20.53;50.03;101084.31;5041397;28;45352;-65
2023/08/09 03:13:48;;;;;;;;;2.00;2.00;;;;;20.53;49.84;101094.13;5041501;28;45380;-65
2023/08/09 03:16:14;;;;;;;;;1.25;1.25;;;;;20.50;50.30;101091.59;5041315;28;45268;-65
2023/08/09 03:18:40;;;;;;;;;5.50;5.50;;;;;20.49;50.46;101097.88;5041270;28;46065;-65
2023/08/09 03:21:07;;;;;;;;;4.00;2.25;;;;;20.47;50.63;101103.31;5041283;28;45274;-65
2023/08/09 03:23:32;;;;;;;;;1.75;1.50;;;;;20.44;50.61;101106.13;5041299;28;45529;-65
2023/08/09 03:25:58;;;;;;;;;1.75;1.75;;;;;20.40;50.88;101108.09;5040949;28;45217;-65
2023/08/09 03:28:24;;;;;;;;;2.00;1.00;;;;;20.36;51.09;101101.16;5041310;28;45361;-64
2023/08/09 03:30:49;;;;;;;;;1.25;1.25;;;;;20.34;50.62;101111.06;5041049;28;45252;-65
2023/08/09 03:33:14;;;;;;;;;2.00;2.00;;;;;20.30;50.76;101109.47;5041359;28;45547;-65
2023/08/09 03:35:40;;;;;;;;;2.00;2.00;;;;;20.26;51.19;101115.91;5041022;28;45236;-65
2023/08/09 03:38:05;;;;;;;;;1.00;1.00;;;;;20.21;50.68;101105.44;5041199;28;45930;-65
2023/08/09 03:40:31;;;;;;;;;1.00;1.00;;;;;20.25;50.83;101112.38;5041005;28;45290;-65
2023/08/09 03:42:56;;;;;;;;;2.00;2.00;;;;;20.24;50.88;101115.13;5041163;28;45281;-65
2023/08/09 03:45:22;;;;;;;;;2.00;1.75;;;;;20.23;50.72;101118.72;5040953;28;45608;-65
2023/08/09 03:47:47;;;;;;;;;2.50;2.00;;;;;20.14;51.25;101102.22;5040759;28;47249;-65
2023/08/09 03:50:13;;;;;;;;;1.00;1.00;;;;;20.19;51.30;101117.13;5040950;28;45131;-65
2023/08/09 03:52:38;;;;;;;;;3.75;1.00;;;;;20.19;51.37;101119.78;5028086;28;45304;-65
2023/08/09 03:55:05;;;;;;;;;1.00;1.00;;;;;20.17;51.07;101117.22;5037757;28;45338;-64
2023/08/09 03:57:30;;;;;;;;;1.00;1.00;;;;;20.16;51.43;101118.16;5021089;28;45336;-65
2023/08/09 03:59:56;;;;;;;;;1.75;1.75;;;;;20.14;50.98;101120.03;5035607;28;45484;-65
2023/08/09 04:02:21;;;;;;;;;2.50;2.50;;;;;20.13;51.71;101126.31;5040768;28;45389;-65
2023/08/09 04:04:47;;;;;;;;;1.00;1.00;;;;;20.10;50.82;101134.44;5040504;28;45538;-65
2023/08/09 04:07:12;;;;;;;;;1.25;1.25;;;;;20.10;51.47;101140.66;5040915;28;45359;-65
2023/08/09 04:09:38;;;;;;;;;2.00;2.00;;;;;20.09;51.58;101144.25;5040678;28;45327;-65
2023/08/09 04:12:03;;;;;;;;;1.00;1.00;;;;;20.07;51.29;101140.78;5040667;28;45376;-65
2023/08/09 04:14:29;;;;;;;;;2.00;2.00;;;;;20.05;51.35;101141.81;5040559;28;45238;-65
2023/08/09 04:16:56;;;;;;;;;2.00;1.25;;;;;20.07;51.79;101151.47;5040223;28;45439;-65
2023/08/09 04:19:23;;;;;;;;;1.75;1.75;;;;;20.06;51.77;101154.22;5040550;28;45241;-65
2023/08/09 04:21:49;;;;;;;;;4.00;2.00;;;;;20.06;52.00;101151.53;5040477;28;45511;-65
2023/08/09 04:24:16;;;;;;;;;4.25;2.00;;;;;20.04;51.75;101162.28;5040416;28;45437;-65
2023/08/09 04:26:42;;;;;;;;;1.50;1.50;;;;;20.02;51.77;101161.50;5040164;28;46156;-64
2023/08/09 04:29:07;;;;;;;;;3.00;2.00;;;;;20.03;51.76;101154.38;5040253;28;45350;-64
2023/08/09 04:31:33;;;;;;;;;2.25;2.00;;;;;20.02;51.70;101152.63;5040553;28;45296;-65
2023/08/09 04:33:59;;;;;;;;;3.00;3.00;;;;;20.05;51.67;101147.13;5040072;28;45657;-64
2023/08/09 04:36:25;;;;;;;;;2.50;1.25;;;;;20.06;51.73;101155.09;5039301;28;45293;-65
2023/08/09 04:38:50;;;;;;;;;1.00;1.00;;;;;20.06;52.13;101163.09;5040174;28;45381;-65
2023/08/09 04:41:15;;;;;;;;;5.75;2.00;;;;;20.07;51.62;101158.63;5040344;28;45295;-65
2023/08/09 04:43:43;;;;;;;;;2.00;1.25;;;;;20.05;52.05;101164.03;5040254;28;45400;-65
2023/08/09 04:46:10;;;;;;;;;1.00;1.00;;;;;20.06;51.90;101164.88;5040095;28;45604;-65
2023/08/09 04:48:35;;;;;;;;;2.00;1.00;;;;;20.08;52.21;101171.03;5039711;28;45471;-65
2023/08/09 04:51:01;;;;;;;;;2.00;1.25;;;;;20.07;51.72;101171.94;5040246;28;45467;-65
2023/08/09 04:53:27;;;;;;;;;1.00;1.00;;;;;20.08;52.63;101174.53;5039996;28;45320;-64
2023/08/09 04:55:52;;;;;;;;;2.25;1.50;;;;;20.05;52.44;101172.03;5039468;28;51817;-65
2023/08/09 04:58:18;;;;;;;;;1.25;1.25;;;;;20.06;51.90;101173.78;5040006;28;45308;-65
2023/08/09 05:00:43;;;;;;;;;1.00;1.00;;;;;20.07;51.91;101166.63;5040262;28;45228;-64
2023/08/09 05:03:08;;;;;;;;;1.50;1.50;;;;;20.09;52.04;101178.09;5039540;28;45254;-65
2023/08/09 05:05:34;;;;;;;;;3.00;2.50;;;;;20.07;52.08;101178.13;5026369;28;47285;-65
2023/08/09 05:07:59;;;;;;;;;2.50;2.50;;;;;20.07;52.12;101186.13;5024753;28;47989;-65
2023/08/09 05:10:24;;;;;;;;;2.00;2.00;;;;;20.08;52.11;101182.53;5020087;28;45349;-65
2023/08/09 05:12:50;;;;;;;;;1.75;1.75;;;;;20.06;52.46;101170.22;5030173;28;45490;-65
2023/08/09 05:15:15;;;;;;;;;2.00;1.50;;;;;20.09;52.58;101175.44;5039774;28;45528;-65
2023/08/09 05:17:40;;;;;;;;;2.00;1.00;;;;;20.06;52.55;101167.53;5039355;28;45503;-64
2023/08/09 05:20:07;;;;;;;;;3.00;1.50;;;;;20.08;52.29;101171.88;5039923;28;45255;-64
2023/08/09 05:22:32;;;;;;;;;5.50;2.50;;;;;20.09;52.23;101178.09;5039383;28;45245;-65
2023/08/09 05:24:58;;;;;;;;;1.00;1.00;;;;;20.05;52.33;101166.69;5039300;28;45414;-65
2023/08/09 05:27:24;;;;;;;;;1.00;1.00;;;;;20.07;52.63;101177.28;5038684;28;45336;-65
2023/08/09 05:29:49;;;;;;;;;2.00;1.00;;;;;20.07;52.24;101179.94;5039837;28;45308;-65
2023/08/09 05:32:15;;;;;;;;;1.75;1.75;;;;;20.07;52.37;101171.94;5039333;28;45488;-65
2023/08/09 05:34:40;;;;;;;;;3.00;3.00;;;;;20.09;53.02;101173.59;5039309;28;45913;-64
2023/08/09 05:37:05;;;;;;;;;2.00;2.00;;;;;20.08;52.98;101174.53;5039286;28;45448;-65
2023/08/09 05:39:31;;;;;;;;;1.25;1.00;;;;;20.09;53.07;101176.28;5039656;28;45350;-64
2023/08/09 05:41:57;;;;;;;;;1.00;1.00;;;;;20.08;52.97;101185.22;5039240;28;45503;-65
2023/08/09 05:44:22;;;;;;;;;1.25;1.25;;;;;20.07;52.51;101185.28;5039383;28;46265;-65
2023/08/09 05:46:48;;;;;;;;;2.00;2.00;;;;;19.91;52.82;101169.13;5038989;28;45374;-65
2023/08/09 05:49:13;;;;;;;;;1.75;1.75;;;;;20.09;52.84;101192.28;5039732;28;45293;-65
2023/08/09 05:51:38;;;;;;;;;1.00;1.00;;;;;20.09;53.35;101191.44;5039202;28;45243;-65
2023/08/09 05:54:04;;;;;;;;;0.00;0.00;;;;;20.08;52.90;101198.53;5039464;28;45249;-64
2023/08/09 05:56:29;;;;;;;;;1.00;1.00;;;;;20.07;53.27;101193.28;5038994;28;45297;-64
2023/08/09 05:58:55;;;;;;;;;2.00;2.00;;;;;20.07;52.84;101194.16;5039187;28;45230;-64
2023/08/09 06:01:21;;;;;;;;;1.00;1.00;;;;;20.06;52.73;101186.22;5039236;28;45239;-64
2023/08/09 06:03:47;;;;;;;;;1.25;1.25;;;;;20.08;52.72;101195.03;5038676;28;45158;-64
2023/08/09 06:06:12;;;;;;;;;2.00;1.00;;;;;20.09;52.90;101196.75;5039214;28;45159;-64
2023/08/09 06:08:38;;;;;;;;;0.75;0.75;;;;;20.07;53.50;101194.16;5039123;28;45270;-64
2023/08/09 06:11:03;;;;;;;;;1.00;1.00;;;;;20.09;52.99;101192.28;5038982;28;45424;-65
2023/08/09 06:13:29;;;;;;;;;1.25;1.25;;;;;20.09;53.00;101196.75;5038686;28;45312;-65
2023/08/09 06:15:55;;;;;;;;;1.50;1.50;;;;;20.07;53.03;101194.16;5026023;28;45357;-64
2023/08/09 06:18:20;;;;;;;;;1.00;1.00;;;;;20.09;53.42;101197.63;5018863;28;45265;-65
2023/08/09 06:20:45;;;;;;;;;1.75;1.75;;;;;20.10;53.27;101199.34;5022012;28;45346;-64
2023/08/09 06:23:11;;;;;;;;;1.00;1.00;;;;;20.10;53.12;101198.47;5022146;28;45264;-65
2023/08/09 06:25:37;;;;;;;;;1.00;1.00;;;;;20.13;53.22;101195.69;5022270;28;45444;-65
2023/08/09 06:28:03;;;;;;;;;1.00;1.00;;;;;20.14;53.56;101200.94;5004674;28;45381;-65
2023/08/09 06:30:29;;;;;;;;;1.00;0.75;;;;;20.17;53.39;101212.41;5022496;28;45237;-65
2023/08/09 06:32:54;;;;;;;;;3.25;2.00;;;;;20.18;53.05;101211.47;5021980;28;45242;-65
2023/08/09 06:35:20;;;;;;;;;2.25;1.25;;;;;20.19;53.12;101214.06;5022221;28;45282;-65
2023/08/09 06:37:46;;;;;;;;;1.50;1.50;;;;;20.20;53.06;101209.56;5022376;28;45218;-65
2023/08/09 06:40:11;;;;;;;;;1.00;1.00;;;;;20.21;53.43;101216.66;5022220;28;45244;-65
2023/08/09 06:42:38;;;;;;;;;2.50;2.00;;;;;20.23;53.29;101233.47;5021761;28;46090;-65
2023/08/09 06:45:05;;;;;;;;;3.00;1.00;;;;;20.23;53.63;101230.78;5022250;28;45377;-65
2023/08/09 06:47:31;;;;;;;;;1.00;1.00;;;;;20.25;53.16;101232.47;5020643;28;45401;-65
2023/08/09 06:49:56;;;;;;;;;2.00;2.00;;;;;20.29;53.08;101238.50;5022129;28;45321;-64
2023/08/09 06:52:21;;;;;;;;;1.00;1.00;;;;;20.30;53.51;101232.22;5021933;28;45354;-65
2023/08/09 06:54:47;;;;;;;;;6.00;4.75;;;;;20.32;53.12;101234.84;5021891;28;45382;-65
2023/08/09 06:57:12;;;;;;;;;1.00;0.75;;;;;20.36;53.57;101239.06;5021971;28;45340;-65
2023/08/09 06:59:37;;;;;;;;;2.00;2.00;;;;;20.36;53.54;101239.06;5034402;28;45337;-65
2023/08/09 07:02:03;;;;;;;;;2.00;2.00;;;;;20.38;53.31;101248.75;5041323;28;45305;-65
2023/08/09 07:04:29;;;;;;;;;1.50;1.00;;;;;20.39;53.02;101249.59;5041715;28;45149;-65
2023/08/09 07:06:54;;;;;;;;;2.00;2.00;;;;;20.39;53.80;101252.25;5041697;28;45234;-65
2023/08/09 07:09:19;;;;;;;;;1.50;1.50;;;;;20.32;53.27;101246.34;5041692;28;45626;-65
2023/08/09 07:11:48;;;;;;;;;1.00;1.00;;;;;20.39;53.26;101263.81;5041230;28;45924;-64
2023/08/09 07:14:14;;;;;;;;;1.50;1.50;;;;;20.39;53.86;101261.16;5041546;28;45376;-64
2023/08/09 07:16:39;;;;;;;;;1.00;1.00;;;;;20.40;53.51;101265.56;5041226;28;45287;-64
2023/08/09 07:19:04;;;;;;;;;3.75;1.75;;;;;20.37;53.55;101257.69;5041487;28;45336;-64
2023/08/09 07:21:30;;;;;;;;;16.25;11.75;;;;;20.40;53.83;101265.56;5041289;28;46292;-64
2023/08/09 07:23:55;;;;;;;;;2.00;2.00;;;;;20.39;53.54;101266.50;5041029;28;49001;-64
2023/08/09 07:26:21;;;;;;;;;10.75;9.25;;;;;20.41;53.90;101266.41;5041117;28;45535;-64
2023/08/09 07:28:46;;;;;;;;;2.00;2.00;;;;;20.43;53.55;101278.75;5041500;28;45310;-64
2023/08/09 07:31:23;;;;;;;;;4.00;3.00;;;;;20.44;53.97;101269.81;5040668;28;45317;-64
2023/08/09 07:33:49;;;;;;;;;3.25;2.75;;;;;20.44;53.72;101264.47;5041159;28;45313;-64
2023/08/09 07:36:15;;;;;;;;;1.00;1.00;;;;;20.48;53.85;101275.88;5041268;28;45265;-65
2023/08/09 07:38:41;;;;;;;;;2.00;2.00;;;;;20.53;53.89;101273.00;5041316;28;45298;-65
2023/08/09 07:41:06;;;;;;;;;2.75;2.25;;;;;20.53;54.14;101275.66;5041112;28;46358;-65
2023/08/09 07:43:31;;;;;;;;;5.00;3.00;;;;;20.58;53.53;101282.50;5040895;28;45241;-64
2023/08/09 07:45:57;;;;;;;;;2.25;2.25;;;;;20.60;53.52;101280.63;5041225;28;45278;-65
2023/08/09 07:48:22;;;;;;;;;2.75;0.25;;;;;20.66;54.10;101290.13;5041006;28;45235;-65
2023/08/09 07:50:48;;;;;;;;;3.00;3.00;;;;;20.70;53.92;101288.19;5041018;28;46477;-65
2023/08/09 07:53:13;;;;;;;;;2.00;2.00;;;;;20.73;53.99;101291.59;5041001;28;45389;-65
2023/08/09 07:55:39;;;;;;;;;4.00;4.00;;;;;20.76;53.80;101293.25;5040051;28;45376;-65
2023/08/09 07:58:05;;;;;;;;;2.75;2.00;;;;;20.78;53.80;101286.06;5041099;28;45356;-65
2023/08/09 08:00:31;;;;;;;;;2.00;2.00;;;;;20.83;54.19;101285.81;5040738;28;45416;-65
2023/08/09 08:02:56;;;;;;;;;1.00;1.00;;;;;20.86;53.73;101293.69;5040652;28;45395;-65
2023/08/09 08:05:21;;;;;;;;;1.00;1.00;;;;;20.84;53.95;101280.41;5040864;28;45498;-64
2023/08/09 08:07:47;;;;;;;;;3.00;3.00;;;;;20.90;53.61;101289.91;5040854;28;45429;-64
2023/08/09 08:10:16;;;;;;;;;4.00;3.00;;;;;20.94;53.53;101289.72;5040379;28;46263;-64
2023/08/09 08:12:44;;;;;;;;;2.50;2.50;;;;;20.94;53.62;101288.81;5022509;28;45242;-64
2023/08/09 08:15:12;;;;;;;;;4.00;2.00;;;;;20.98;54.12;101290.44;5022745;28;45411;-64
2023/08/09 08:17:37;;;;;;;;;3.00;2.00;;;;;21.00;53.88;101290.34;5040261;28;45343;-64
2023/08/09 08:20:07;;;;;;;;;1.25;1.25;;;;;21.02;53.61;101288.44;5040409;28;46096;-64
2023/08/09 08:22:33;;;;;;;;;1.25;0.25;;;;;21.01;54.32;101290.25;5040396;28;45467;-64
2023/08/09 08:24:58;;;;;;;;;2.00;2.00;;;;;21.05;54.09;101294.50;5040390;28;45534;-64
2023/08/09 08:27:25;;;;;;;;;2.00;1.00;;;;;21.09;53.81;101301.44;5040348;28;47319;-65
2023/08/09 08:29:54;;;;;;;;;1.50;1.50;;;;;21.09;54.16;101296.09;5040450;28;45339;-65
2023/08/09 08:32:19;;;;;;;;;1.00;1.00;;;;;21.14;53.79;101300.34;5039962;28;45316;-65
2023/08/09 08:34:44;;;;;;;;;1.25;1.25;;;;;21.15;53.80;101299.41;5040345;28;45372;-65
2023/08/09 08:37:10;;;;;;;;;1.00;1.00;;;;;21.20;54.14;101305.38;5040047;28;45245;-66
2023/08/09 08:39:38;;;;;;;;;5.00;4.00;;;;;21.23;53.34;101311.44;5040387;28;45357;-65
2023/08/09 08:42:03;;;;;;;;;2.00;1.75;;;;;21.27;53.50;101304.13;5037772;28;45436;-65
2023/08/09 08:44:29;;;;;;;;;1.00;1.00;;;;;21.29;53.49;101309.41;5040424;28;45378;-65
2023/08/09 08:46:55;;;;;;;;;1.50;1.50;;;;;21.34;53.76;101312.69;5039796;28;45361;-66
2023/08/09 08:49:24;;;;;;;;;1.00;1.00;;;;;21.34;53.96;101310.88;5040216;28;46190;-65
2023/08/09 08:51:54;;;;;;;;;2.00;2.00;;;;;21.39;53.90;101314.19;5039946;28;45317;-66
2023/08/09 08:54:19;;;;;;;;;2.25;2.25;;;;;21.43;53.44;101310.44;5039706;28;45344;-66
2023/08/09 08:56:47;;;;;;;;;3.25;3.00;;;;;21.51;53.31;101317.16;5039800;28;45668;-65
2023/08/09 08:59:13;;;;;;;;;2.00;2.00;;;;;21.55;53.38;101316.97;5039979;28;46127;-65
2023/08/09 09:01:39;;;;;;;;;2.00;2.00;;;;;21.62;53.49;101314.00;5039142;28;45191;-65
2023/08/09 09:04:04;;;;;;;;;1.00;1.00;;;;;21.67;53.27;101320.84;5039926;28;45229;-65
2023/08/09 09:06:30;;;;;;;;;1.50;0.75;;;;;21.71;53.70;101311.72;5039849;28;45541;-66
2023/08/09 09:08:56;;;;;;;;;11.50;9.50;;;;;21.82;53.49;101329.84;5039750;28;47238;-65
2023/08/09 09:11:22;;;;;;;;;0.50;0.50;;;;;21.86;53.66;101323.41;5039590;28;45262;-66
2023/08/09 09:13:50;;;;;;;;;2.00;2.00;;;;;21.94;53.57;101330.16;5039816;28;45238;-65
2023/08/09 09:16:17;;;;;;;;;1.00;1.00;;;;;21.97;52.89;101319.31;5039527;28;45416;-66
2023/08/09 09:18:45;;;;;;;;;2.75;2.00;;;;;22.06;52.86;101334.88;5038676;28;45384;-66
2023/08/09 09:21:11;;;;;;;;;1.50;1.00;;;;;22.13;52.91;101338.09;5039507;28;45158;-65
2023/08/09 09:23:38;;;;;;;;;1.25;1.25;;;;;22.21;53.23;101336.75;5039481;28;45326;-65
2023/08/09 09:26:11;;;;;;;;;4.00;3.00;;;;;22.28;52.64;101331.06;5039522;28;45413;-66
2023/08/09 09:28:41;;;;;;;;;0.00;0.00;;;;;22.35;52.99;101329.75;5039301;28;46146;-66
2023/08/09 09:31:12;;;;;;;;;1.00;1.00;;;;;22.45;52.52;101343.53;5039341;28;45365;-66
2023/08/09 09:33:39;;;;;;;;;2.25;2.25;;;;;22.51;52.42;101344.06;5039221;28;45255;-65
2023/08/09 09:36:10;;;;;;;;;1.50;1.00;;;;;22.60;52.66;101344.50;5039099;28;45463;-65
2023/08/09 09:38:36;;;;;;;;;1.00;1.00;;;;;22.66;52.58;101341.50;5039362;28;46202;-65
2023/08/09 09:41:02;;;;;;;;;1.75;1.75;;;;;22.72;52.67;101344.69;5008078;28;45348;-65
2023/08/09 09:43:31;;;;;;;;;2.75;2.00;;;;;22.79;52.48;101341.66;5026273;28;45432;-65
2023/08/09 09:45:56;;;;;;;;;0.00;0.00;;;;;22.84;52.52;101328.88;5019575;28;45358;-65
2023/08/09 09:48:23;;;;;;;;;1.75;1.75;;;;;22.83;52.45;101328.03;5019152;28;46229;-65
2023/08/09 09:50:49;;;;;;;;;1.00;1.00;;;;;22.94;52.28;101335.44;5019543;28;45366;-65
2023/08/09 09:53:17;;;;;;;;;0.50;0.50;;;;;22.99;52.36;101336.06;5002235;28;45267;-65
2023/08/09 09:55:42;;;;;;;;;2.00;2.00;;;;;23.06;51.97;101336.56;5021556;28;45380;-65
2023/08/09 09:58:07;;;;;;;;;2.25;1.50;;;;;23.11;52.00;101339.84;5022722;28;46299;-66
2023/08/09 10:00:33;;;;;;;;;1.00;1.00;;;;;23.16;52.04;101336.94;5042982;28;45229;-65
2023/08/09 10:03:04;;;;;;;;;2.00;2.00;;;;;23.23;51.85;101335.59;5042713;28;45392;-65
2023/08/09 10:05:36;;;;;;;;;2.00;2.00;;;;;23.30;51.69;101334.28;5029654;28;45239;-65
2023/08/09 10:08:07;;;;;;;;;0.00;0.00;;;;;23.39;51.81;101342.75;5042538;28;47243;-65
2023/08/09 10:10:35;;;;;;;;;1.25;1.00;;;;;23.49;51.83;101350.16;5042303;28;45169;-65
2023/08/09 10:13:03;;;;;;;;;2.00;0.75;;;;;23.60;51.69;101341.47;5042445;28;45345;-65
2023/08/09 10:15:41;;;;;;;;;2.00;1.00;;;;;23.71;51.71;101338.16;5042346;28;45494;-65
2023/08/09 10:18:12;;;;;;;;;1.00;1.00;;;;;23.81;51.55;101342.00;5042045;28;46800;-66
2023/08/09 10:20:44;;;;;;;;;1.00;1.00;;;;;23.94;51.58;101342.16;5042276;28;45317;-65
2023/08/09 10:23:22;;;;;;;;;0.33;0.33;;;;;24.05;51.46;101332.56;5042196;28;45451;-65
2023/08/09 10:25:50;;;;;;;;;2.33;1.33;;;;;24.14;51.53;101324.81;5042107;28;45480;-65
2023/08/09 10:28:17;;;;;;;;;1.00;1.00;;;;;24.26;51.55;101325.00;5042102;28;46022;-65
2023/08/09 10:30:50;;;;;;;;;1.00;1.00;;;;;24.37;51.12;101330.56;5042036;28;45246;-65
2023/08/09 10:33:19;;;;;;;;;1.00;1.00;;;;;24.52;50.89;101338.63;5041999;28;45131;-65
2023/08/09 10:35:50;;;;;;;;;1.75;1.75;;;;;24.62;50.77;101340.59;5041892;28;45607;-65
2023/08/09 10:38:37;;;;;;;;;1.00;1.00;;;;;24.72;50.81;101332.00;5024023;28;45682;-65
2023/08/09 10:41:08;;;;;;;;;1.00;0.00;;;;;24.77;50.62;101328.03;5041123;28;45344;-65
2023/08/09 10:43:34;;;;;;;;;2.00;1.50;;;;;24.83;49.91;101337.53;5042190;28;45384;-65
2023/08/09 10:46:22;;;;;;;;;2.00;2.00;;;;;24.89;49.95;101345.19;5041978;28;45131;-65
2023/08/09 10:48:50;;;;;;;;;1.00;1.00;;;;;24.93;49.81;101353.91;5041911;28;45638;-65
2023/08/09 10:51:15;;;;;;;;;1.25;1.25;;;;;24.94;50.32;101348.44;5041921;28;45391;-65
2023/08/09 10:54:00;;;;;;;;;1.75;1.75;;;;;24.96;49.75;101359.94;5041145;28;45339;-65
2023/08/09 10:56:33;;;;;;;;;2.00;2.00;;;;;24.95;49.66;101352.84;5041747;28;45561;-65
2023/08/09 10:59:06;;;;;;;;;1.00;1.00;;;;;24.93;49.77;101357.47;5041616;28;46127;-65
2023/08/09 11:01:36;;;;;;;;;1.25;1.25;;;;;24.92;49.71;101361.13;5041414;28;45238;-65
2023/08/09 11:04:06;;;;;;;;;1.00;1.00;;;;;24.93;49.06;101372.72;5041864;28;45676;-65
2023/08/09 11:06:36;;;;;;;;;2.00;1.75;;;;;24.91;49.54;101375.50;5040881;28;45335;-65
2023/08/09 11:09:08;;;;;;;;;3.00;2.00;;;;;24.88;49.15;101369.47;5023587;28;47551;-65
2023/08/09 11:11:34;;;;;;;;;2.75;1.50;;;;;24.83;48.80;101373.31;5041424;28;45310;-65
2023/08/09 11:14:01;;;;;;;;;3.00;2.00;;;;;24.80;48.79;101369.97;5032297;28;45396;-65
2023/08/09 11:16:27;;;;;;;;;5.50;5.50;;;;;24.77;48.74;101371.03;5023900;28;45508;-65
2023/08/09 11:19:27;;;;;;;;;3.25;2.00;;;;;24.74;48.63;101373.03;5021561;28;46033;-65
2023/08/09 11:21:56;;;;;;;;;1.50;1.50;;;;;24.69;49.04;101370.69;4968167;28;45225;-65